Time;durP1;ratioP1;P1;durP2;ratioP2;P2;SDS_P1;SDS_P2;PMS_P1;PMS_P2;Temp;Humidity;BMP_temperature;BMP_pressure;BME280_temperature;BME280_humidity;BME280_pressure;Samples;Min_cycle;Max_cycle;Signal;HPM_P1;HPM_P2
2023/09/16 00:02:52;;;;;;;14.40;6.00;;;;;;;11.36;72.51;100750.59;133677;1301;23512;-89
2023/09/16 00:05:52;;;;;;;10.60;6.10;;;;;;;11.30;72.73;100745.38;133789;1300;22353;-89
2023/09/16 00:08:53;;;;;;;10.60;6.30;;;;;;;11.25;73.05;100745.23;133819;1300;22423;-89
2023/09/16 00:11:53;;;;;;;13.80;7.20;;;;;;;11.19;73.37;100744.86;133758;1307;23109;-89
2023/09/16 00:14:54;;;;;;;9.30;5.60;;;;;;;11.13;73.55;100744.85;133977;1302;22267;-89
2023/09/16 00:17:54;;;;;;;8.50;5.90;;;;;;;11.08;73.77;100738.71;133990;1304;22474;-88
2023/09/16 00:20:55;;;;;;;11.50;6.30;;;;;;;11.05;74.02;100736.56;134003;1302;22356;-89
2023/09/16 00:23:56;;;;;;;8.70;6.30;;;;;;;11.03;74.22;100733.93;133967;1306;22425;-89
2023/09/16 00:26:56;;;;;;;11.10;6.10;;;;;;;10.99;74.40;100727.06;133994;1302;23496;-89
2023/09/16 00:29:57;;;;;;;11.90;6.50;;;;;;;10.97;74.41;100726.18;133966;1306;22887;-89
2023/09/16 00:32:57;;;;;;;6.60;5.10;;;;;;;10.97;74.69;100729.06;133980;1305;22472;-89
2023/09/16 00:35:58;;;;;;;9.90;6.00;;;;;;;10.99;74.61;100729.41;133760;1304;22402;-89
2023/09/16 00:38:59;;;;;;;12.00;6.50;;;;;;;11.01;74.91;100728.84;133772;1302;22340;-89
2023/09/16 00:41:59;;;;;;;13.10;6.10;;;;;;;11.02;74.80;100729.44;133972;1302;23027;-89
2023/09/16 00:45:00;;;;;;;10.30;6.30;;;;;;;11.03;74.90;100730.37;133784;1307;22493;-89
2023/09/16 00:48:02;;;;;;;8.20;5.70;;;;;;;11.05;75.17;100725.98;133885;1299;22200;-89
2023/09/16 00:51:06;;;;;;;10.20;5.90;;;;;;;11.05;75.08;100722.72;133952;1295;22458;-89
2023/09/16 00:54:07;;;;;;;10.20;6.00;;;;;;;11.06;75.49;100720.73;133960;1302;23753;-89
2023/09/16 00:57:12;;;;;;;8.50;5.30;;;;;;;11.06;75.44;100721.07;133975;1306;23215;-89
2023/09/16 01:00:14;;;;;;;11.30;7.20;;;;;;;11.07;75.58;100720.13;133951;1306;22307;-89
2023/09/16 01:03:16;;;;;;;10.50;5.90;;;;;;;11.09;75.73;100721.98;133979;1299;23243;-89
2023/09/16 01:06:18;;;;;;;10.60;6.00;;;;;;;11.11;75.94;100717.72;133983;1301;22369;-88
2023/09/16 01:09:21;;;;;;;13.50;5.90;;;;;;;11.14;76.11;100721.19;133974;1299;22234;-89
2023/09/16 01:12:21;;;;;;;12.80;6.30;;;;;;;11.15;76.03;100721.37;133995;1306;22481;-89
2023/09/16 01:15:27;;;;;;;9.70;6.40;;;;;;;11.16;76.00;100726.42;133978;1295;22333;-89
2023/09/16 01:18:32;;;;;;;9.60;5.90;;;;;;;11.18;76.19;100731.48;134002;1302;22293;-89
2023/09/16 01:21:33;;;;;;;10.90;6.00;;;;;;;11.19;76.11;100732.15;133795;1306;22417;-90
2023/09/16 01:24:34;;;;;;;9.60;6.00;;;;;;;11.17;76.14;100737.41;133982;1306;22387;-89
2023/09/16 01:27:37;;;;;;;10.80;6.10;;;;;;;11.18;76.21;100737.95;133775;1305;22357;-90
2023/09/16 01:30:44;;;;;;;9.80;6.30;;;;;;;11.17;76.15;100736.45;134033;1300;22366;-89
2023/09/16 01:33:51;;;;;;;10.50;6.40;;;;;;;11.16;76.26;100732.42;133976;1306;22658;-88
2023/09/16 01:36:52;;;;;;;8.10;6.20;;;;;;;11.16;76.36;100731.06;133758;1302;22402;-89
2023/09/16 01:39:56;;;;;;;12.50;6.60;;;;;;;11.14;76.41;100728.26;133778;1305;23198;-89
2023/09/16 01:42:58;;;;;;;8.50;5.30;;;;;;;11.12;76.54;100726.99;133997;1302;22266;-89
2023/09/16 01:45:59;;;;;;;8.10;5.30;;;;;;;11.12;76.74;100722.46;133793;1299;22362;-89
2023/09/16 01:49:00;;;;;;;8.90;5.50;;;;;;;11.10;76.58;100720.30;133985;1299;22531;-88
2023/09/16 01:52:00;;;;;;;7.90;5.30;;;;;;;11.08;76.61;100719.59;133992;1306;22951;-87
2023/09/16 01:55:01;;;;;;;10.20;5.60;;;;;;;11.08;76.49;100726.04;133789;1306;22456;-89
2023/09/16 01:58:02;;;;;;;9.50;6.30;;;;;;;11.06;76.57;100725.45;133758;1301;22440;-90
2023/09/16 02:01:11;;;;;;;11.30;5.60;;;;;;;11.05;76.68;100727.70;133770;1301;22434;-89
2023/09/16 02:04:11;;;;;;;11.00;6.30;;;;;;;11.02;76.62;100723.63;133958;1304;22365;-89
2023/09/16 02:07:12;;;;;;;8.70;6.00;;;;;;;10.99;76.60;100724.27;133756;1302;22402;-89
2023/09/16 02:10:14;;;;;;;9.00;5.60;;;;;;;10.96;76.65;100722.59;133648;1305;22338;-88
2023/09/16 02:13:15;;;;;;;9.50;5.80;;;;;;;10.93;76.93;100715.66;133710;1302;22376;-88
2023/09/16 02:16:16;;;;;;;8.70;5.60;;;;;;;10.91;76.81;100716.45;133597;1301;22383;-90
2023/09/16 02:19:17;;;;;;;9.70;5.80;;;;;;;10.86;77.07;100715.64;133704;1308;22282;-89
2023/09/16 02:22:17;;;;;;;10.80;6.10;;;;;;;10.82;77.10;100716.77;133735;1304;22437;-89
2023/09/16 02:25:18;;;;;;;8.80;5.70;;;;;;;10.78;77.10;100717.16;133696;1301;22474;-89
2023/09/16 02:28:18;;;;;;;7.90;5.80;;;;;;;10.75;77.18;100713.39;133721;1305;23580;-88
2023/09/16 02:31:19;;;;;;;7.80;5.70;;;;;;;10.69;76.96;100713.59;133683;1302;22517;-89
2023/09/16 02:34:19;;;;;;;7.60;5.10;;;;;;;10.64;77.35;100711.15;133719;1308;22450;-88
2023/09/16 02:37:20;;;;;;;6.70;5.20;;;;;;;10.58;77.29;100706.62;133754;1302;23384;-88
2023/09/16 02:40:21;;;;;;;;;;;;;;;10.52;77.47;100706.96;133755;1308;22523;-89
2023/09/16 02:43:21;;;;;;;8.90;5.60;;;;;;;10.49;77.62;100707.01;133580;1302;22418;-88
2023/09/16 02:46:22;;;;;;;10.90;5.40;;;;;;;10.46;77.69;100701.56;133564;1301;22504;-89
2023/09/16 02:49:23;;;;;;;7.70;5.30;;;;;;;10.46;77.95;100696.46;133750;1302;23247;-88
2023/09/16 02:52:23;;;;;;;8.60;5.30;;;;;;;10.46;78.05;100691.16;133573;1308;22572;-89
2023/09/16 02:55:24;;;;;;;8.80;5.30;;;;;;;10.45;78.15;100689.80;133603;1308;22468;-89
2023/09/16 02:58:25;;;;;;;8.60;4.90;;;;;;;10.45;78.09;100691.11;133728;1308;23575;-88
2023/09/16 03:01:25;;;;;;;9.80;5.10;;;;;;;10.45;78.28;100687.58;133684;1308;22196;-89
2023/09/16 03:04:26;;;;;;;10.40;5.20;;;;;;;10.46;78.38;100682.86;133735;1308;22227;-90
2023/09/16 03:07:27;;;;;;;9.00;5.40;;;;;;;10.46;78.18;100681.23;133711;1308;22261;-88
2023/09/16 03:10:32;;;;;;;7.80;5.40;;;;;;;10.48;78.35;100685.47;133583;1308;22740;-90
2023/09/16 03:13:33;;;;;;;9.50;5.10;;;;;;;10.49;78.45;100685.38;133690;1304;22443;-90
2023/09/16 03:16:35;;;;;;;10.90;5.20;;;;;;;10.50;78.51;100681.71;133594;1300;22492;-88
2023/09/16 03:19:36;;;;;;;10.80;5.10;;;;;;;10.54;78.59;100681.38;133467;1301;22421;-89
2023/09/16 03:22:36;;;;;;;9.00;5.60;;;;;;;10.57;78.57;100681.77;133533;1308;202038;-89
2023/09/16 03:25:37;;;;;;;7.70;5.50;;;;;;;10.59;78.61;100680.66;133691;1301;23352;-89
2023/09/16 03:28:41;;;;;;;8.00;4.70;;;;;;;10.60;78.64;100677.71;133694;1304;22351;-89
2023/09/16 03:31:42;;;;;;;7.60;5.30;;;;;;;10.61;78.66;100677.61;133592;1308;22403;-89
2023/09/16 03:34:48;;;;;;;12.10;5.40;;;;;;;10.63;78.67;100676.56;133524;1308;22455;-89
2023/09/16 03:37:50;;;;;;;10.30;5.60;;;;;;;10.63;78.83;100673.88;133477;1302;23277;-89
2023/09/16 03:40:50;;;;;;;8.60;5.10;;;;;;;10.62;78.84;100663.40;133703;1308;22973;-88
2023/09/16 03:43:51;;;;;;;13.70;5.50;;;;;;;10.61;79.20;100662.92;133690;1302;22173;-89
2023/09/16 03:46:55;;;;;;;11.00;5.50;;;;;;;10.61;79.29;100662.63;133471;1308;22856;-89
2023/09/16 03:49:56;;;;;;;8.60;5.40;;;;;;;10.58;79.22;100662.50;133660;1301;22199;-90
2023/09/16 03:52:56;;;;;;;10.20;5.60;;;;;;;10.57;79.38;100667.38;133508;1301;22280;-89
2023/09/16 03:55:58;;;;;;;9.70;5.20;;;;;;;10.57;79.69;100666.31;133683;1301;22528;-89
2023/09/16 03:59:02;;;;;;;11.00;5.60;;;;;;;10.57;79.65;100662.34;133707;1301;22295;-84
2023/09/16 04:02:03;;;;;;;11.20;5.20;;;;;;;10.55;79.65;100662.09;133488;1301;22428;-83
2023/09/16 04:05:04;;;;;;;8.50;5.60;;;;;;;10.55;79.86;100663.04;133456;1309;22348;-84
2023/09/16 04:08:08;;;;;;;9.50;6.00;;;;;;;10.54;79.83;100661.85;133638;1302;22457;-84
2023/09/16 04:11:09;;;;;;;10.80;5.60;;;;;;;10.53;79.99;100662.47;133751;1301;22369;-83
2023/09/16 04:14:12;;;;;;;11.50;6.70;;;;;;;10.53;80.12;100665.02;133809;1301;22353;-83
2023/09/16 04:17:13;;;;;;;10.60;5.90;;;;;;;10.53;80.20;100666.96;133833;1308;23230;-83
2023/09/16 04:20:14;;;;;;;8.70;6.10;;;;;;;10.51;80.42;100661.85;133614;1301;22356;-83
2023/09/16 04:23:15;;;;;;;13.90;6.00;;;;;;;10.49;80.39;100663.65;133797;1307;22584;-82
2023/09/16 04:26:20;;;;;;;8.70;5.40;;;;;;;10.47;80.58;100666.33;133784;1301;22251;-83
2023/09/16 04:29:21;;;;;;;11.60;6.20;;;;;;;10.44;80.56;100664.85;133824;1301;22390;-83
2023/09/16 04:32:22;;;;;;;11.40;6.30;;;;;;;10.42;80.73;100666.22;133800;1301;22357;-83
2023/09/16 04:35:23;;;;;;;8.80;5.40;;;;;;;10.42;80.61;100665.23;133646;1308;23559;-83
2023/09/16 04:38:24;;;;;;;;;;;;;;;10.40;80.89;100669.34;133600;1308;22444;-80
2023/09/16 04:41:29;;;;;;;9.50;6.10;;;;;;;10.38;80.86;100666.38;133600;1302;22492;-79
2023/09/16 04:44:38;;;;;;;8.50;5.90;;;;;;;10.38;80.94;100668.83;133815;1298;22361;-85
2023/09/16 04:47:39;;;;;;;11.80;6.10;;;;;;;10.40;81.10;100674.81;133693;1300;23280;-84
2023/09/16 04:50:45;;;;;;;11.70;5.80;;;;;;;10.41;81.15;100674.72;133811;1301;22278;-84
2023/09/16 04:53:50;;;;;;;9.60;5.90;;;;;;;10.41;81.15;100675.23;133485;1302;23081;-84
2023/09/16 04:56:51;;;;;;;12.30;6.00;;;;;;;10.42;81.27;100670.56;133573;1304;22280;-84
2023/09/16 04:59:51;;;;;;;13.20;5.80;;;;;;;10.43;81.38;100672.72;133791;1301;22378;-83
2023/09/16 05:02:52;;;;;;;8.80;6.10;;;;;;;10.46;81.58;100677.23;133722;1302;22384;-83
2023/09/16 05:05:53;;;;;;;13.90;6.20;;;;;;;10.49;81.58;100675.13;133612;1301;22464;-85
2023/09/16 05:08:56;;;;;;;10.70;5.80;;;;;;;10.54;81.65;100672.45;133501;1301;22533;-86
2023/09/16 05:11:57;;;;;;;9.90;6.40;;;;;;;10.58;82.08;100668.55;133509;1301;22399;-83
2023/09/16 05:14:58;;;;;;;8.10;5.70;;;;;;;10.70;82.23;100672.45;133698;1300;22388;-84
2023/09/16 05:17:59;;;;;;;9.80;5.90;;;;;;;11.07;82.28;100669.98;133496;1304;22365;-83
2023/09/16 05:21:00;;;;;;;12.60;5.70;;;;;;;11.56;82.02;100668.69;133755;1298;22246;-84
2023/09/16 05:24:00;;;;;;;17.20;6.30;;;;;;;12.01;81.15;100674.41;133767;1301;22233;-83
2023/09/16 05:27:03;;;;;;;11.00;6.00;;;;;;;12.42;80.71;100673.29;133630;1301;22273;-85
2023/09/16 05:30:04;;;;;;;;;;;;;;;12.84;80.20;100675.25;133598;1301;22458;-84
2023/09/16 05:33:06;;;;;;;8.40;5.50;;;;;;;13.27;79.45;100676.16;133794;1301;22212;-84
2023/09/16 05:36:07;;;;;;;12.20;5.80;;;;;;;13.62;78.58;100678.33;133633;1304;22529;-84
2023/09/16 05:39:08;;;;;;;9.60;5.80;;;;;;;13.90;77.74;100677.16;133704;1301;23333;-84
2023/09/16 05:42:09;;;;;;;9.60;5.50;;;;;;;14.12;76.75;100676.64;133714;1304;22389;-84
2023/09/16 05:45:10;;;;;;;;;;;;;;;14.34;76.04;100672.15;133689;1301;22445;-84
2023/09/16 05:48:14;;;;;;;8.50;5.10;;;;;;;14.48;75.50;100674.07;133660;1301;22428;-83
2023/09/16 05:51:19;;;;;;;7.70;5.20;;;;;;;14.65;74.79;100672.05;133604;1301;22359;-83
2023/09/16 05:54:25;;;;;;;8.20;5.50;;;;;;;14.80;74.50;100669.91;133606;1301;22518;-83
2023/09/16 05:57:26;;;;;;;10.00;5.40;;;;;;;14.95;74.03;100670.36;133562;1301;22268;-83
2023/09/16 06:00:28;;;;;;;;;;;;;;;15.16;73.94;100667.30;133708;1300;22482;-83
2023/09/16 06:03:28;;;;;;;9.20;5.40;;;;;;;15.47;73.51;100663.58;133524;1301;22399;-83
2023/09/16 06:06:29;;;;;;;9.30;5.40;;;;;;;15.82;72.79;100664.04;133714;1301;22236;-80
2023/09/16 06:09:29;;;;;;;7.20;5.20;;;;;;;16.06;71.94;100660.70;133749;1285;22306;-81
2023/09/16 06:12:33;;;;;;;7.80;4.50;;;;;;;16.17;71.41;100659.53;133733;1301;22364;-81
2023/09/16 06:15:33;;;;;;;10.40;5.10;;;;;;;16.43;71.41;100664.27;133551;1302;23201;-81
2023/09/16 06:18:37;;;;;;;8.90;5.30;;;;;;;16.62;70.46;100664.98;133637;1302;22432;-81
2023/09/16 06:21:37;;;;;;;10.60;4.70;;;;;;;16.80;70.07;100665.61;133646;1301;22524;-83
2023/09/16 06:24:38;;;;;;;10.00;5.50;;;;;;;16.92;69.26;100662.09;133772;1301;22501;-82
2023/09/16 06:27:39;;;;;;;9.40;5.00;;;;;;;17.21;69.56;100663.05;133505;1301;22424;-82
2023/09/16 06:30:39;;;;;;;;;;;;;;;17.46;68.11;100663.70;133711;1301;22492;-81
2023/09/16 06:33:43;;;;;;;8.00;5.20;;;;;;;17.61;67.88;100664.71;133653;1301;22400;-83
2023/09/16 06:36:44;;;;;;;10.10;4.60;;;;;;;17.85;67.95;100662.40;133592;1304;23178;-81
2023/09/16 06:39:46;;;;;;;9.50;4.60;;;;;;;18.16;67.35;100656.39;133808;1301;23093;-82
2023/09/16 06:42:52;;;;;;;8.70;4.50;;;;;;;18.39;66.38;100650.46;133597;1301;22484;-81
2023/09/16 06:45:53;;;;;;;;;;;;;;;18.55;65.83;100649.52;133780;1301;23493;-81
2023/09/16 06:48:53;;;;;;;6.60;4.70;;;;;;;18.59;65.00;100646.14;133774;1302;23316;-82
2023/09/16 06:51:54;;;;;;;6.50;4.00;;;;;;;18.57;64.87;100645.73;133782;1301;22401;-81
2023/09/16 06:54:54;;;;;;;;;;;;;;;18.70;64.83;100643.41;133814;1292;22986;-81
2023/09/16 06:57:55;;;;;;;8.40;4.40;;;;;;;18.87;63.41;100641.86;133743;1301;22358;-81
2023/09/16 07:00:56;;;;;;;;;;;;;;;18.85;63.95;100642.31;133759;1301;24477;-80
2023/09/16 07:03:57;;;;;;;7.70;5.10;;;;;;;18.94;62.57;100646.98;133746;1298;22348;-80
2023/09/16 07:06:58;;;;;;;7.40;3.90;;;;;;;18.84;62.08;100650.84;133737;1289;23326;-80
2023/09/16 07:09:58;;;;;;;6.60;4.30;;;;;;;18.70;61.51;100651.53;133794;1300;23220;-81
2023/09/16 07:12:59;;;;;;;5.70;3.80;;;;;;;18.80;62.66;100647.80;133585;1302;23344;-82
2023/09/16 07:15:59;;;;;;;;;;;;;;;19.03;62.38;100648.83;133774;1300;22471;-82
2023/09/16 07:19:00;;;;;;;;;;;;;;;19.44;62.53;100649.60;133771;1301;23129;-81
2023/09/16 07:22:01;;;;;;;7.50;4.10;;;;;;;19.78;61.37;100650.33;133740;1301;22487;-81
2023/09/16 07:25:04;;;;;;;6.30;4.10;;;;;;;19.73;60.25;100651.31;133775;1301;23127;-81
2023/09/16 07:28:07;;;;;;;5.20;4.00;;;;;;;19.70;60.27;100648.20;133711;1300;23172;-81
2023/09/16 07:31:08;;;;;;;6.20;4.10;;;;;;;19.73;59.55;100651.21;133722;1300;23279;-84
2023/09/16 07:34:08;;;;;;;6.70;3.90;;;;;;;19.77;59.98;100646.94;133719;1301;22375;-81
2023/09/16 07:37:09;;;;;;;9.20;3.90;;;;;;;20.14;59.31;100650.43;133717;1301;22317;-80
2023/09/16 07:40:10;;;;;;;7.30;3.60;;;;;;;20.34;58.65;100648.34;133738;1301;22183;-81
2023/09/16 07:43:11;;;;;;;7.40;4.30;;;;;;;20.54;57.49;100645.85;133730;1300;22513;-82
2023/09/16 07:46:12;;;;;;;5.60;3.70;;;;;;;20.55;57.68;100641.29;133786;1301;22399;-81
2023/09/16 07:49:12;;;;;;;5.30;3.70;;;;;;;20.77;57.82;100638.55;133771;1301;22234;-84
2023/09/16 07:52:13;;;;;;;9.10;3.90;;;;;;;20.98;57.34;100641.74;133753;1301;23163;-86
2023/09/16 07:55:16;;;;;;;9.50;3.80;;;;;;;21.12;56.78;100648.95;133789;1301;22450;-78
2023/09/16 07:58:16;;;;;;;8.10;3.70;;;;;;;21.16;56.72;100643.45;133764;1301;22576;-82
2023/09/16 08:01:17;;;;;;;9.90;4.30;;;;;;;21.16;56.14;100645.67;133699;1300;22458;-82
2023/09/16 08:04:18;;;;;;;6.60;3.80;;;;;;;21.26;55.12;100644.30;133726;1301;22243;-78
2023/09/16 08:07:18;;;;;;;6.30;3.40;;;;;;;21.34;54.77;100638.91;133785;1304;22442;-81
2023/09/16 08:10:19;;;;;;;5.30;3.50;;;;;;;21.47;54.88;100631.89;133736;1301;22488;-81
2023/09/16 08:13:20;;;;;;;6.60;3.70;;;;;;;21.69;55.26;100632.50;133781;1301;22425;-80
2023/09/16 08:16:21;;;;;;;7.70;3.80;;;;;;;21.85;53.69;100629.83;133765;1300;22260;-80
2023/09/16 08:19:26;;;;;;;8.20;3.30;;;;;;;21.73;53.31;100629.05;133790;1301;22403;-83
2023/09/16 08:22:30;;;;;;;6.80;3.70;;;;;;;21.67;53.56;100627.33;133780;1301;23281;-81
2023/09/16 08:25:31;;;;;;;5.40;3.20;;;;;;;21.92;54.33;100625.95;133759;1301;22483;-82
2023/09/16 08:28:34;;;;;;;6.30;3.80;;;;;;;22.26;53.37;100620.70;133747;1297;22264;-82
2023/09/16 08:31:34;;;;;;;5.60;3.40;;;;;;;22.34;52.26;100610.46;133766;1301;23659;-80
2023/09/16 08:34:40;;;;;;;5.00;3.70;;;;;;;22.24;52.80;100615.84;133756;1301;22392;-80
2023/09/16 08:37:43;;;;;;;6.70;3.50;;;;;;;22.13;52.88;100618.30;133772;1300;22463;-79
2023/09/16 08:40:53;;;;;;;5.90;3.10;;;;;;;22.14;53.13;100617.89;133809;1301;22595;-78
2023/09/16 08:43:59;;;;;;;6.50;3.50;;;;;;;22.23;53.00;100622.58;133758;1300;22414;-80
2023/09/16 08:47:07;;;;;;;3.90;3.30;;;;;;;22.29;52.30;100620.50;133560;1300;22424;-79
2023/09/16 08:50:11;;;;;;;6.90;3.40;;;;;;;22.34;52.33;100613.66;133786;1301;22486;-79
2023/09/16 08:53:15;;;;;;;6.50;3.70;;;;;;;22.53;52.17;100609.91;133579;1301;22438;-78
2023/09/16 08:56:16;;;;;;;9.40;3.30;;;;;;;22.72;52.60;100600.72;133813;1301;22426;-79
2023/09/16 08:59:18;;;;;;;5.20;3.40;;;;;;;22.93;51.94;100609.65;133763;1300;22418;-79
2023/09/16 09:02:19;;;;;;;3.80;3.30;;;;;;;22.82;51.55;100606.42;133800;1302;22539;-82
2023/09/16 09:05:25;;;;;;;5.40;3.50;;;;;;;22.60;51.21;100605.80;133756;1301;23433;-79
2023/09/16 09:08:28;;;;;;;6.50;3.70;;;;;;;22.62;51.86;100600.16;133816;1300;22426;-79
2023/09/16 09:11:31;;;;;;;6.30;3.40;;;;;;;22.91;52.10;100597.64;133774;1301;22474;-84
2023/09/16 09:14:32;;;;;;;4.50;2.90;;;;;;;23.15;51.25;100590.84;133842;1301;22639;-79
2023/09/16 09:17:49;;;;;;;5.00;3.30;;;;;;;23.11;50.83;100589.88;133754;1301;22373;-79
2023/09/16 09:20:52;;;;;;;6.00;3.40;;;;;;;23.04;50.64;100582.89;133805;1301;22452;-79
2023/09/16 09:23:53;;;;;;;4.30;3.00;;;;;;;23.05;50.83;100579.84;133795;1301;22472;-79
2023/09/16 09:26:54;;;;;;;5.30;3.30;;;;;;;23.20;51.15;100581.80;133799;1301;23158;-80
2023/09/16 09:29:54;;;;;;;3.90;2.70;;;;;;;23.28;51.03;100578.37;133796;1300;23328;-80
2023/09/16 09:32:56;;;;;;;4.40;2.60;;;;;;;23.46;50.98;100576.17;133805;1300;22480;-79
2023/09/16 09:36:33;;;;;;;4.40;2.90;;;;;;;23.58;50.72;100573.48;133857;1300;22372;-78
2023/09/16 09:39:34;;;;;;;4.00;3.00;;;;;;;23.89;50.81;100570.88;133384;1301;22410;-78
2023/09/16 09:42:42;;;;;;;4.40;2.90;;;;;;;24.05;50.22;100574.33;133737;1301;22540;-82
2023/09/16 09:45:43;;;;;;;3.60;2.80;;;;;;;23.99;49.69;100572.80;133814;1300;22457;-82
2023/09/16 09:48:44;;;;;;;6.20;2.80;;;;;;;24.13;49.85;100576.45;133870;1300;23706;-79
2023/09/16 09:51:48;;;;;;;4.70;3.00;;;;;;;24.14;49.60;100572.20;133693;1305;22249;-79
2023/09/16 09:54:55;;;;;;;4.80;3.00;;;;;;;24.17;49.38;100566.33;133749;1301;22448;-79
2023/09/16 09:58:03;;;;;;;5.40;3.00;;;;;;;24.09;49.14;100566.36;133415;1300;22251;-81
2023/09/16 10:01:03;;;;;;;3.40;2.90;;;;;;;24.08;49.29;100569.71;133569;1301;22306;-82
2023/09/16 10:04:05;;;;;;;6.80;3.50;;;;;;;24.13;48.78;100565.67;133685;1300;22367;-79
2023/09/16 10:07:07;;;;;;;3.50;2.90;;;;;;;24.12;49.13;100561.48;133672;1301;22371;-79
2023/09/16 10:10:19;;;;;;;3.20;2.90;;;;;;;24.35;49.08;100561.36;133677;1301;23321;-80
2023/09/16 10:13:20;;;;;;;3.30;2.60;;;;;;;24.39;48.45;100556.60;133485;1301;22382;-79
2023/09/16 10:16:22;;;;;;;4.20;3.10;;;;;;;24.38;48.13;100551.71;133740;1300;22401;-79
2023/09/16 10:19:22;;;;;;;3.50;3.00;;;;;;;24.35;48.42;100551.00;133789;1301;23403;-81
2023/09/16 10:22:26;;;;;;;4.40;2.80;;;;;;;24.33;48.36;100539.80;133866;1308;23282;-80
2023/09/16 10:25:33;;;;;;;3.70;2.90;;;;;;;24.38;48.40;100533.36;133778;1300;22225;-79
2023/09/16 10:28:43;;;;;;;4.60;3.20;;;;;;;24.51;48.81;100534.51;133794;1300;23008;-81
2023/09/16 10:31:45;;;;;;;3.50;2.60;;;;;;;24.65;47.99;100526.19;133760;1300;23250;-80
2023/09/16 10:34:48;;;;;;;8.60;3.10;;;;;;;24.46;47.50;100523.59;133811;1300;22502;-80
2023/09/16 10:37:51;;;;;;;4.00;3.00;;;;;;;24.39;48.00;100524.11;133800;1300;22337;-79
2023/09/16 10:40:53;;;;;;;3.90;2.90;;;;;;;24.42;48.43;100516.80;133800;1301;23159;-81
2023/09/16 10:43:55;;;;;;;4.80;2.50;;;;;;;24.53;48.20;100524.52;133624;1302;22481;-80
2023/09/16 10:46:58;;;;;;;4.50;2.90;;;;;;;24.50;48.16;100522.02;133784;1300;22603;-80
2023/09/16 10:49:58;;;;;;;5.30;2.80;;;;;;;24.60;48.10;100526.39;133529;1301;22349;-81
2023/09/16 10:53:05;;;;;;;4.90;3.10;;;;;;;24.61;47.89;100521.75;133772;1300;22582;-82
2023/09/16 10:56:23;;;;;;;4.90;3.20;;;;;;;24.65;47.90;100515.46;133810;1301;22476;-82
2023/09/16 10:59:28;;;;;;;4.30;3.00;;;;;;;24.76;48.21;100513.70;133725;1301;22372;-75
2023/09/16 11:02:34;;;;;;;5.40;3.10;;;;;;;25.05;47.94;100511.25;133787;1301;23896;-73
2023/09/16 11:05:35;;;;;;;3.20;2.90;;;;;;;25.17;47.28;100512.29;133760;1301;23144;-82
2023/09/16 11:08:36;;;;;;;4.10;2.90;;;;;;;25.03;47.46;100512.37;133810;1301;22493;-81
2023/09/16 11:11:37;;;;;;;3.10;2.80;;;;;;;25.14;47.70;100508.23;133751;1301;23310;-82
2023/09/16 11:14:38;;;;;;;4.00;2.70;;;;;;;25.37;47.48;100508.83;133794;1301;22333;-81
2023/09/16 11:17:39;;;;;;;2.90;2.60;;;;;;;25.58;47.09;100509.19;133760;1301;23241;-81
2023/09/16 11:20:40;;;;;;;8.20;3.00;;;;;;;25.51;46.69;100509.34;133799;1298;23090;-81
2023/09/16 11:23:44;;;;;;;3.50;2.80;;;;;;;25.42;46.63;100506.48;133708;1300;22479;-82
2023/09/16 11:26:49;;;;;;;5.60;2.80;;;;;;;25.53;46.52;100505.34;133678;1300;22326;-81
2023/09/16 11:29:52;;;;;;;3.20;2.80;;;;;;;25.51;46.38;100504.40;133618;1301;22225;-81
2023/09/16 11:32:55;;;;;;;3.40;2.50;;;;;;;25.32;46.03;100501.15;133778;1285;23062;-80
2023/09/16 11:36:10;;;;;;;3.20;2.80;;;;;;;25.32;46.35;100498.06;133778;1297;22371;-81
2023/09/16 11:39:15;;;;;;;4.20;2.70;;;;;;;25.53;47.03;100496.38;133742;1298;23322;-80
2023/09/16 11:42:20;;;;;;;2.60;2.40;;;;;;;25.57;46.35;100496.80;133408;1302;22907;-82
2023/09/16 11:45:21;;;;;;;2.60;2.40;;;;;;;25.53;46.24;100489.80;133756;1301;22380;-80
2023/09/16 11:48:22;;;;;;;5.10;3.10;;;;;;;25.63;46.14;100486.80;133809;1301;23228;-80
2023/09/16 11:51:25;;;;;;;5.20;2.60;;;;;;;25.70;45.73;100483.51;133810;1304;22437;-80
2023/09/16 11:54:26;;;;;;;6.30;2.80;;;;;;;25.77;44.94;100479.42;133784;1301;22373;-79
2023/09/16 11:57:32;;;;;;;3.40;2.80;;;;;;;25.82;45.58;100480.20;133745;1301;22242;-81
2023/09/16 12:00:33;;;;;;;4.40;2.70;;;;;;;25.77;45.40;100477.73;133791;1301;22360;-81
2023/09/16 12:03:36;;;;;;;5.70;3.00;;;;;;;25.63;45.39;100479.02;133766;1301;22348;-81
2023/09/16 12:06:38;;;;;;;3.80;3.00;;;;;;;25.70;45.72;100476.27;133796;1302;22452;-81
2023/09/16 12:09:39;;;;;;;2.70;2.40;;;;;;;25.71;45.45;100469.00;133774;1301;22279;-81
2023/09/16 12:12:43;;;;;;;4.30;3.10;;;;;;;25.73;45.74;100466.52;133790;1300;22370;-78
2023/09/16 12:15:47;;;;;;;3.90;3.00;;;;;;;25.77;45.48;100462.47;133817;1301;22378;-78
2023/09/16 12:18:48;;;;;;;5.10;2.60;;;;;;;25.72;44.65;100457.20;133756;1301;22447;-78
2023/09/16 12:21:49;;;;;;;3.00;2.40;;;;;;;25.68;43.91;100457.72;133749;1301;23212;-81
2023/09/16 12:24:56;;;;;;;3.60;2.80;;;;;;;25.55;44.18;100456.25;133775;1300;22669;-82
2023/09/16 12:27:57;;;;;;;2.90;2.60;;;;;;;25.39;43.95;100452.23;133845;1300;22435;-80
2023/09/16 12:30:57;;;;;;;5.20;2.70;;;;;;;25.30;44.41;100448.78;133765;1301;22245;-79
2023/09/16 12:34:00;;;;;;;4.20;2.40;;;;;;;25.37;44.56;100445.83;133866;1301;22189;-78
2023/09/16 12:37:02;;;;;;;2.60;2.30;;;;;;;25.47;44.31;100448.57;133876;1295;22444;-80
2023/09/16 12:40:03;;;;;;;2.90;2.70;;;;;;;25.54;43.50;100447.38;133858;1299;22527;-80
2023/09/16 12:43:06;;;;;;;6.10;2.80;;;;;;;25.59;43.95;100447.10;133868;1301;23599;-80
2023/09/16 12:46:09;;;;;;;4.10;2.60;;;;;;;25.69;43.38;100446.42;133831;1300;22421;-79
2023/09/16 12:49:10;;;;;;;2.90;2.70;;;;;;;25.55;43.24;100452.02;133825;1301;22424;-78
2023/09/16 12:52:14;;;;;;;2.90;2.60;;;;;;;25.38;43.45;100444.36;133842;1304;22273;-82
2023/09/16 12:55:16;;;;;;;2.70;2.50;;;;;;;25.36;43.65;100439.66;133703;1301;23166;-79
2023/09/16 12:58:21;;;;;;;6.50;2.60;;;;;;;25.41;43.11;100436.50;133808;1301;22468;-77
2023/09/16 13:01:26;;;;;;;5.10;2.70;;;;;;;25.41;43.06;100436.30;133842;1294;22255;-80
2023/09/16 13:04:27;;;;;;;2.80;2.50;;;;;;;25.43;43.35;100440.11;133559;1302;22420;-80
2023/09/16 13:07:27;;;;;;;3.00;2.70;;;;;;;25.41;43.98;100438.13;133886;1301;22257;-80
2023/09/16 13:10:28;;;;;;;2.90;2.50;;;;;;;25.37;43.69;100436.58;133731;1300;22290;-80
2023/09/16 13:13:30;;;;;;;4.60;2.70;;;;;;;25.40;43.92;100438.23;133440;1301;22443;-80
2023/09/16 13:16:38;;;;;;;3.40;2.70;;;;;;;25.47;44.15;100439.06;133656;1305;22345;-80
2023/09/16 13:19:40;;;;;;;2.90;2.60;;;;;;;25.45;43.30;100432.96;133704;1301;22554;-81
2023/09/16 13:22:42;;;;;;;3.40;2.50;;;;;;;25.42;43.53;100431.02;133658;1301;22408;-81
2023/09/16 13:25:42;;;;;;;2.80;2.50;;;;;;;25.38;42.86;100425.88;133695;1301;22314;-80
2023/09/16 13:29:01;;;;;;;2.70;2.50;;;;;;;25.36;43.77;100425.70;133683;1301;22419;-80
2023/09/16 13:32:04;;;;;;;2.80;2.50;;;;;;;25.36;43.97;100421.09;133624;1301;23123;-78
2023/09/16 13:35:05;;;;;;;2.90;2.30;;;;;;;25.29;43.89;100424.33;133649;1301;23443;-78
2023/09/16 13:38:08;;;;;;;4.20;2.70;;;;;;;25.20;44.11;100418.60;133652;1301;22491;-81
2023/09/16 13:41:09;;;;;;;2.40;2.20;;;;;;;25.14;44.37;100419.55;133435;1302;22442;-78
2023/09/16 13:44:12;;;;;;;2.50;2.30;;;;;;;25.12;43.82;100411.97;133619;1301;22448;-79
2023/09/16 13:47:13;;;;;;;3.20;2.90;;;;;;;25.11;43.53;100405.86;133637;1301;22421;-79
2023/09/16 13:50:13;;;;;;;3.40;2.40;;;;;;;25.03;43.74;100401.45;133652;1301;23129;-78
2023/09/16 13:53:16;;;;;;;3.20;2.60;;;;;;;25.03;44.21;100397.98;133644;1301;22214;-76
2023/09/16 13:56:19;;;;;;;3.60;2.60;;;;;;;25.09;44.15;100391.69;133678;1301;23255;-77
2023/09/16 13:59:22;;;;;;;2.30;2.10;;;;;;;24.98;43.61;100390.75;133632;1301;23245;-79